Time;durP1;ratioP1;P1;durP2;ratioP2;P2;SDS_P1;SDS_P2;PMS_P1;PMS_P2;Temp;Humidity;BMP_temperature;BMP_pressure;BME280_temperature;BME280_humidity;BME280_pressure;Samples;Min_cycle;Max_cycle;Signal;HPM_P1;HPM_P2
2021/06/16 00:02:05;;;;;;;7.18;2.92;;;;;;;17.36;54.51;101280.31;4928121;29;20040;-83
2021/06/16 00:04:35;;;;;;;10.23;3.30;;;;;;;17.32;54.41;101268.22;4920563;29;20119;-85
2021/06/16 00:07:03;;;;;;;9.07;2.78;;;;;;;17.51;54.38;101295.25;4930946;29;20056;-80
2021/06/16 00:09:29;;;;;;;10.07;3.03;;;;;;;17.53;54.61;101288.09;4915558;29;20040;-82
2021/06/16 00:11:57;;;;;;;7.72;3.20;;;;;;;17.28;54.36;101242.03;4911873;29;20044;-83
2021/06/16 00:14:24;;;;;;;8.60;3.17;;;;;;;17.43;54.39;101257.88;4924919;29;20402;-82
2021/06/16 00:16:50;;;;;;;11.15;3.13;;;;;;;17.19;54.41;101210.06;4916665;29;20135;-83
2021/06/16 00:19:18;;;;;;;8.18;2.90;;;;;;;17.69;54.19;101284.56;4938595;29;20048;-79
2021/06/16 00:22:00;;;;;;;11.35;3.38;;;;;;;17.63;53.88;101262.00;4938633;29;20055;-82
2021/06/16 00:24:37;;;;;;;8.70;3.00;;;;;;;17.65;54.04;101278.63;4915321;29;20070;-81
2021/06/16 00:27:34;;;;;;;10.07;2.97;;;;;;;17.73;53.93;101276.34;4934793;29;20482;-80
2021/06/16 00:30:17;;;;;;;9.13;3.40;;;;;;;17.63;53.96;101272.56;4919499;29;20059;-83
2021/06/16 00:32:45;;;;;;;9.27;3.38;;;;;;;17.48;53.79;101260.25;4900852;29;20066;-83
2021/06/16 00:35:18;;;;;;;10.07;3.50;;;;;;;17.50;53.94;101258.38;4907353;29;20498;-82
2021/06/16 00:37:47;;;;;;;6.97;2.80;;;;;;;17.32;54.36;101221.59;4908053;29;20060;-82
2021/06/16 00:40:20;;;;;;;9.93;3.53;;;;;;;17.54;55.00;101260.78;4916191;29;20127;-81
2021/06/16 00:42:47;;;;;;;6.13;3.28;;;;;;;17.61;54.96;101258.59;4907576;29;20052;-80
2021/06/16 00:45:19;;;;;;;11.55;3.45;;;;;;;17.73;54.77;101257.88;4917076;29;20140;-82
2021/06/16 00:47:48;;;;;;;7.53;3.35;;;;;;;17.79;55.24;101259.31;4923174;29;20383;-83
2021/06/16 00:50:21;;;;;;;9.73;3.55;;;;;;;17.81;55.29;101251.28;4929445;23;20063;-83
2021/06/16 00:53:01;;;;;;;9.90;4.00;;;;;;;17.60;55.69;101210.25;4907425;29;20076;-84
2021/06/16 00:55:39;;;;;;;9.35;3.55;;;;;;;17.77;55.91;101251.47;4911461;29;20045;-82
2021/06/16 00:58:12;;;;;;;10.55;4.22;;;;;;;17.63;56.23;101243.53;4896959;29;20060;-82
2021/06/16 01:01:08;;;;;;;11.50;3.75;;;;;;;17.53;56.42;101234.47;4909556;29;20044;-82
2021/06/16 01:04:17;;;;;;;8.63;3.88;;;;;;;17.42;56.16;101235.94;4896430;29;20049;-83
2021/06/16 01:06:48;;;;;;;7.07;2.90;;;;;;;17.27;56.31;101218.34;4912748;29;20041;-83
2021/06/16 01:09:40;;;;;;;11.70;3.75;;;;;;;17.43;56.08;101229.72;4910454;29;20099;-79
2021/06/16 01:12:24;;;;;;;7.13;3.08;;;;;;;17.26;56.47;101214.88;4894331;29;20063;-83
2021/06/16 01:15:03;;;;;;;8.57;3.38;;;;;;;17.32;56.67;101226.88;4894966;29;20096;-82
2021/06/16 01:18:03;;;;;;;7.13;2.72;;;;;;;17.16;57.13;101224.25;4895360;29;20086;-79
2021/06/16 01:20:53;;;;;;;6.40;3.17;;;;;;;16.73;57.54;101158.13;4891898;29;20494;-83
2021/06/16 01:23:43;;;;;;;7.57;2.67;;;;;;;17.12;57.41;101220.09;4890916;29;20057;-79
2021/06/16 01:26:51;;;;;;;6.70;2.70;;;;;;;17.12;56.92;101212.19;4893610;29;20494;-83
2021/06/16 01:29:37;;;;;;;7.68;3.17;;;;;;;17.08;57.19;101210.66;4949420;23;20434;-82
2021/06/16 01:32:09;;;;;;;6.57;2.92;;;;;;;17.09;57.11;101217.66;4919680;29;20056;-79
2021/06/16 01:34:57;;;;;;;7.90;2.90;;;;;;;16.98;57.25;101191.88;4935736;29;20048;-80
2021/06/16 01:37:59;;;;;;;6.70;2.65;;;;;;;16.99;57.78;101206.78;4995714;23;20052;-80
2021/06/16 01:40:53;;;;;;;6.68;2.75;;;;;;;16.74;58.07;101179.09;4916852;29;20060;-79
2021/06/16 01:43:40;;;;;;;5.88;2.65;;;;;;;17.00;57.75;101197.06;4921877;29;20036;-78
2021/06/16 01:46:22;;;;;;;7.55;2.90;;;;;;;16.87;58.11;101189.81;4902388;29;20104;-79
2021/06/16 01:48:49;;;;;;;7.70;2.97;;;;;;;16.95;58.44;101200.81;4881112;29;20078;-80
2021/06/16 01:51:16;;;;;;;8.35;3.20;;;;;;;16.88;58.20;101182.75;4886478;29;20057;-80
2021/06/16 01:53:42;;;;;;;8.52;3.00;;;;;;;16.99;58.32;101193.59;4872438;29;20051;-78
2021/06/16 01:56:10;;;;;;;5.78;3.10;;;;;;;17.02;58.59;101197.84;4882865;29;20092;-79
2021/06/16 01:58:37;;;;;;;6.32;2.70;;;;;;;16.92;58.14;101173.78;4884561;29;20052;-78
2021/06/16 02:01:04;;;;;;;7.28;2.90;;;;;;;16.98;58.60;101194.53;4892984;29;20056;-78
2021/06/16 02:03:30;;;;;;;10.55;3.20;;;;;;;17.01;58.11;101188.22;4896358;29;20053;-81
2021/06/16 02:05:58;;;;;;;8.43;2.97;;;;;;;16.97;58.28;101184.91;4912593;29;20040;-82
2021/06/16 02:08:28;;;;;;;7.38;2.97;;;;;;;16.93;58.61;101186.00;4883412;29;20049;-79
2021/06/16 02:11:00;;;;;;;9.38;3.42;;;;;;;16.88;58.80;101182.75;4881619;29;20080;-79
2021/06/16 02:13:40;;;;;;;7.55;3.22;;;;;;;16.79;58.79;101158.59;4882891;29;20044;-80
2021/06/16 02:16:15;;;;;;;7.57;3.10;;;;;;;16.79;59.16;101165.66;4899132;29;20060;-79
2021/06/16 02:18:47;;;;;;;7.80;3.03;;;;;;;16.68;59.40;101163.63;4899623;29;20517;-80
2021/06/16 02:21:14;;;;;;;7.32;3.25;;;;;;;16.67;59.65;101180.38;4887615;29;20049;-78
2021/06/16 02:23:46;;;;;;;7.00;2.97;;;;;;;16.57;59.63;101158.97;4884657;29;20147;-81
2021/06/16 02:26:15;;;;;;;7.05;3.20;;;;;;;16.61;59.74;101167.56;4889411;29;20056;-80
2021/06/16 02:28:42;;;;;;;6.80;3.42;;;;;;;16.51;60.20;101153.22;4887475;29;20049;-79
2021/06/16 02:31:10;;;;;;;8.88;3.35;;;;;;;16.45;60.91;101151.75;4888573;29;20127;-82
2021/06/16 02:33:37;;;;;;;8.90;3.35;;;;;;;16.42;61.20;101144.03;4898311;29;20123;-83
2021/06/16 02:36:06;;;;;;;9.35;4.22;;;;;;;16.29;62.40;101138.59;4895502;29;20045;-81
2021/06/16 02:38:35;;;;;;;7.38;4.50;;;;;;;16.22;63.26;101138.09;4883148;29;20495;-82
2021/06/16 02:41:06;;;;;;;6.85;4.45;;;;;;;16.09;63.92;101135.25;4881667;29;20049;-81
2021/06/16 02:43:35;;;;;;;8.02;4.22;;;;;;;15.98;64.53;101132.38;4869805;29;20048;-82
2021/06/16 02:46:03;;;;;;;7.07;4.22;;;;;;;15.25;64.69;101014.28;4880174;29;20064;-80
2021/06/16 02:48:29;;;;;;;10.45;5.10;;;;;;;15.84;65.08;101117.31;4877150;29;20415;-83
2021/06/16 02:50:59;;;;;;;9.40;4.75;;;;;;;15.86;65.48;101112.81;4867934;29;20068;-84
2021/06/16 02:53:26;;;;;;;8.15;4.05;;;;;;;15.85;65.18;101113.75;4864904;29;20419;-81
2021/06/16 02:56:01;;;;;;;9.68;4.85;;;;;;;15.71;65.63;101096.03;4877699;29;20068;-82
2021/06/16 02:58:30;;;;;;;7.53;4.80;;;;;;;15.76;65.63;101111.56;4876152;29;20053;-83
2021/06/16 03:01:00;;;;;;;8.85;4.88;;;;;;;15.66;66.11;101104.16;4876934;29;20133;-83
2021/06/16 03:03:27;;;;;;;8.50;4.82;;;;;;;15.17;65.94;101026.06;4881168;29;20125;-83
2021/06/16 03:05:56;;;;;;;13.68;5.85;;;;;;;15.60;66.47;101101.00;4879711;29;20045;-82
2021/06/16 03:08:23;;;;;;;6.57;4.97;;;;;;;15.59;66.71;101094.91;4860482;29;20064;-84
2021/06/16 03:10:49;;;;;;;8.05;5.28;;;;;;;15.61;66.58;101095.69;4887888;29;20045;-83
2021/06/16 03:13:17;;;;;;;10.38;5.38;;;;;;;15.63;66.27;101095.59;4872214;29;20049;-84
2021/06/16 03:15:46;;;;;;;7.03;5.15;;;;;;;15.59;66.61;101083.53;4878623;29;20057;-85
2021/06/16 03:18:15;;;;;;;10.02;5.40;;;;;;;15.49;67.03;101078.75;4887120;29;20057;-84
2021/06/16 03:20:42;;;;;;;9.82;5.80;;;;;;;15.55;66.94;101082.84;4864718;29;20049;-84
2021/06/16 03:23:09;;;;;;;8.50;5.78;;;;;;;15.47;67.43;101092.91;4863397;29;20053;-84
2021/06/16 03:25:37;;;;;;;9.45;5.38;;;;;;;15.45;67.26;101097.41;4869151;29;20048;-82
2021/06/16 03:28:06;;;;;;;10.77;5.65;;;;;;;15.30;67.62;101076.22;4863519;29;20189;-83
2021/06/16 03:30:33;;;;;;;9.48;5.35;;;;;;;14.80;67.85;101012.16;4847162;29;20057;-82
2021/06/16 03:33:01;;;;;;;7.45;5.50;;;;;;;15.28;68.03;101085.13;4870074;29;20049;-82
2021/06/16 03:35:27;;;;;;;8.50;5.78;;;;;;;15.10;67.81;101050.09;4875862;29;20049;-82
2021/06/16 03:37:57;;;;;;;10.38;5.57;;;;;;;15.05;67.68;101045.09;4875293;29;20060;-83
2021/06/16 03:40:31;;;;;;;7.45;5.20;;;;;;;15.25;67.77;101075.63;4879282;29;20131;-83
2021/06/16 03:42:59;;;;;;;9.18;5.20;;;;;;;15.19;67.48;101065.41;4899321;29;20048;-85
2021/06/16 03:45:26;;;;;;;9.35;5.35;;;;;;;15.26;67.33;101068.56;4898407;29;20053;-84
2021/06/16 03:48:00;;;;;;;10.10;5.45;;;;;;;15.28;67.48;101070.22;4897901;29;20409;-84
2021/06/16 03:50:28;;;;;;;9.15;5.35;;;;;;;15.02;67.71;101037.38;4899557;29;20049;-78
2021/06/16 03:52:56;;;;;;;8.63;5.13;;;;;;;15.19;67.79;101063.63;4897872;29;20092;-83
2021/06/16 03:55:23;;;;;;;9.15;5.63;;;;;;;15.18;67.79;101061.09;4902782;29;20123;-83
2021/06/16 03:57:49;;;;;;;8.50;5.40;;;;;;;15.05;67.90;101045.09;4904544;29;20056;-84
2021/06/16 04:00:17;;;;;;;7.80;4.75;;;;;;;15.07;68.06;101063.44;4894214;29;20056;-82
2021/06/16 04:02:47;;;;;;;9.93;5.43;;;;;;;14.84;68.04;101019.00;4888852;29;20062;-84
2021/06/16 04:05:16;;;;;;;10.35;5.32;;;;;;;15.03;67.75;101034.66;4910116;29;20048;-83
2021/06/16 04:07:50;;;;;;;8.88;5.47;;;;;;;15.12;67.63;101051.72;4917427;29;20061;-82
2021/06/16 04:10:18;;;;;;;8.52;5.72;;;;;;;14.99;67.74;101033.13;4900357;29;20105;-83
2021/06/16 04:12:49;;;;;;;8.80;5.30;;;;;;;14.99;67.97;101059.41;4894048;29;20559;-79
2021/06/16 04:15:16;;;;;;;10.52;6.22;;;;;;;14.94;68.14;101053.53;4895335;29;20080;-78
2021/06/16 04:17:43;;;;;;;9.73;5.57;;;;;;;15.02;67.85;101064.50;4915276;29;20409;-79
2021/06/16 04:20:10;;;;;;;6.63;5.68;;;;;;;15.01;67.90;101057.56;4904039;29;20040;-78
2021/06/16 04:22:36;;;;;;;9.30;5.90;;;;;;;15.06;68.03;101065.19;4899362;29;20044;-80
2021/06/16 04:25:03;;;;;;;10.48;5.53;;;;;;;15.15;67.82;101062.09;4896675;29;20049;-79
2021/06/16 04:27:29;;;;;;;9.98;5.97;;;;;;;14.98;68.12;101044.56;4901222;29;20060;-78
2021/06/16 04:30:06;;;;;;;11.02;5.43;;;;;;;15.17;68.07;101055.00;4899884;29;20078;-79
2021/06/16 04:32:33;;;;;;;9.30;6.47;;;;;;;15.11;67.92;101049.19;4887373;29;20053;-78
2021/06/16 04:34:59;;;;;;;9.35;6.03;;;;;;;15.02;67.87;101037.38;4887876;29;20506;-79
2021/06/16 04:37:25;;;;;;;11.55;5.90;;;;;;;15.03;68.33;101033.81;4892188;29;20056;-79
2021/06/16 04:39:51;;;;;;;10.38;6.20;;;;;;;15.00;68.26;101032.19;4891465;29;20057;-81
2021/06/16 04:42:18;;;;;;;11.82;6.13;;;;;;;15.14;68.00;101046.41;4896171;29;20048;-83
2021/06/16 04:44:44;;;;;;;11.85;5.75;;;;;;;15.12;67.52;101032.47;4901818;29;20051;-80
2021/06/16 04:47:16;;;;;;;8.60;6.00;;;;;;;15.14;67.76;101034.09;4903188;29;20084;-81
2021/06/16 04:49:44;;;;;;;11.27;5.93;;;;;;;15.19;67.51;101029.44;4901215;29;20048;-80
2021/06/16 04:52:11;;;;;;;10.60;5.53;;;;;;;15.25;67.88;101037.97;4889560;29;20214;-82
2021/06/16 04:54:38;;;;;;;10.38;6.03;;;;;;;15.31;67.64;101035.00;4887239;29;20096;-81
2021/06/16 04:57:05;;;;;;;9.15;5.75;;;;;;;15.35;67.54;101028.63;4902959;29;20052;-80
2021/06/16 04:59:32;;;;;;;10.18;6.22;;;;;;;16.00;65.47;101035.69;4886223;29;20076;-80
2021/06/16 05:02:03;;;;;;;10.30;6.25;;;;;;;16.79;62.76;101023.31;4891231;29;20116;-81
2021/06/16 05:04:29;;;;;;;9.70;5.90;;;;;;;17.29;61.25;101021.22;4898858;29;20041;-80
2021/06/16 05:06:58;;;;;;;10.30;6.10;;;;;;;17.38;60.25;101004.84;4891700;29;20048;-82
2021/06/16 05:09:25;;;;;;;11.18;6.55;;;;;;;17.38;60.43;100990.78;4880666;29;20135;-80
2021/06/16 05:11:52;;;;;;;9.32;6.32;;;;;;;17.68;59.73;100984.53;4890621;29;20056;-80
2021/06/16 05:14:19;;;;;;;12.45;5.80;;;;;;;18.27;58.40;101021.25;4883154;29;20096;-80
2021/06/16 05:16:45;;;;;;;12.30;6.13;;;;;;;18.44;57.07;101003.44;4904516;29;20048;-79
2021/06/16 05:19:22;;;;;;;10.60;6.43;;;;;;;18.58;56.69;100990.16;4918919;29;20048;-79
2021/06/16 05:21:50;;;;;;;7.78;6.25;;;;;;;18.16;57.79;100995.56;4894192;29;20056;-79
2021/06/16 05:24:17;;;;;;;9.45;6.50;;;;;;;17.50;60.18;101010.28;4912751;29;20029;-82
2021/06/16 05:26:45;;;;;;;11.82;7.82;;;;;;;17.00;61.74;101010.66;4900351;29;20051;-84
2021/06/16 05:29:11;;;;;;;12.48;7.82;;;;;;;16.69;62.73;100994.00;4896739;29;20053;-83
2021/06/16 05:31:38;;;;;;;12.27;8.23;;;;;;;16.69;63.05;101011.63;4902618;29;20060;-82
2021/06/16 05:34:07;;;;;;;12.57;7.57;;;;;;;16.70;63.65;101002.75;4874927;29;20056;-82
2021/06/16 05:36:35;;;;;;;12.75;7.85;;;;;;;16.63;64.16;101003.13;4896312;29;20049;-79
2021/06/16 05:39:01;;;;;;;12.05;7.82;;;;;;;16.39;64.63;100981.69;4884384;29;20068;-79
2021/06/16 05:41:30;;;;;;;16.50;7.45;;;;;;;16.40;65.10;101011.53;4879407;29;20096;-80
2021/06/16 05:43:58;;;;;;;9.32;7.13;;;;;;;16.41;64.47;100994.78;4892028;29;20127;-79
2021/06/16 05:46:25;;;;;;;10.48;7.45;;;;;;;16.55;64.48;101015.06;4892153;29;20056;-83
2021/06/16 05:48:53;;;;;;;14.88;8.25;;;;;;;16.59;64.28;101004.25;4883182;29;20057;-83
2021/06/16 05:51:19;;;;;;;13.05;8.23;;;;;;;16.77;64.49;101007.59;4892076;29;20044;-79
2021/06/16 05:53:45;;;;;;;13.38;8.55;;;;;;;16.69;64.82;101014.25;4891669;29;20059;-82
2021/06/16 05:56:12;;;;;;;14.30;8.15;;;;;;;16.74;65.08;101012.19;4897971;29;20081;-82
2021/06/16 05:58:38;;;;;;;17.15;10.02;;;;;;;16.78;64.97;101017.19;4887095;29;20104;-82
2021/06/16 06:01:04;;;;;;;12.93;8.52;;;;;;;16.93;64.56;101010.19;4894225;29;20048;-82
2021/06/16 06:03:34;;;;;;;11.48;9.43;;;;;;;17.16;64.28;101004.47;4892625;29;20514;-79
2021/06/16 06:06:01;;;;;;;13.18;10.15;;;;;;;16.79;64.76;100950.31;4889579;29;20558;-82
2021/06/16 06:08:28;;;;;;;13.77;9.38;;;;;;;16.88;65.34;100983.22;4896998;29;20060;-81
2021/06/16 06:10:57;;;;;;;14.57;10.00;;;;;;;16.90;65.27;100967.31;4893328;29;20052;-81
2021/06/16 06:13:23;;;;;;;13.32;9.90;;;;;;;17.07;64.80;100988.25;4892954;29;20049;-81
2021/06/16 06:15:49;;;;;;;13.30;10.55;;;;;;;16.69;64.94;100909.66;4882351;29;20052;-81
2021/06/16 06:18:16;;;;;;;13.82;9.63;;;;;;;17.26;64.96;100984.50;4878358;29;20049;-81
2021/06/16 06:20:43;;;;;;;16.27;10.25;;;;;;;17.11;64.90;100950.22;4899962;29;20048;-80
2021/06/16 06:23:10;;;;;;;14.02;11.40;;;;;;;17.52;64.11;100995.22;4888010;29;20057;-80
2021/06/16 06:25:37;;;;;;;15.68;10.63;;;;;;;17.47;64.35;100986.72;4882820;29;20057;-81
2021/06/16 06:28:04;;;;;;;14.63;11.30;;;;;;;17.37;64.63;100975.88;4882973;29;20048;-81
2021/06/16 06:30:30;;;;;;;12.82;9.73;;;;;;;17.66;64.14;100986.41;4884294;29;20511;-82
2021/06/16 06:32:59;;;;;;;14.50;10.85;;;;;;;17.54;63.56;100936.09;4889938;29;20059;-82
2021/06/16 06:35:25;;;;;;;14.00;10.65;;;;;;;17.56;63.84;100943.91;4870938;29;20410;-81
2021/06/16 06:38:01;;;;;;;14.23;11.25;;;;;;;17.78;63.44;100972.44;4883074;29;20053;-81
2021/06/16 06:40:27;;;;;;;14.93;10.68;;;;;;;18.02;63.40;100990.31;4896571;29;20052;-82
2021/06/16 06:42:56;;;;;;;14.88;10.55;;;;;;;18.14;62.99;100984.22;4890965;29;20053;-82
2021/06/16 06:45:30;;;;;;;15.38;10.40;;;;;;;18.19;62.69;100966.28;4866325;29;20132;-82
2021/06/16 06:47:59;;;;;;;13.20;10.68;;;;;;;18.18;62.96;100977.78;4867066;29;20064;-83
2021/06/16 06:50:25;;;;;;;13.15;10.20;;;;;;;18.29;62.69;100981.53;4897453;29;20060;-81
2021/06/16 06:52:51;;;;;;;13.15;10.05;;;;;;;18.15;62.68;100959.50;4917052;29;20049;-80
2021/06/16 06:55:18;;;;;;;15.48;9.68;;;;;;;18.15;62.22;100935.72;4915514;29;20072;-81
2021/06/16 06:57:45;;;;;;;15.40;11.15;;;;;;;18.15;62.40;100959.50;4912674;29;20104;-82
2021/06/16 07:00:13;;;;;;;13.40;11.13;;;;;;;18.17;62.20;100970.81;4916912;29;20059;-83
2021/06/16 07:02:43;;;;;;;14.25;11.40;;;;;;;18.08;62.70;100982.00;4921686;29;20056;-82
2021/06/16 07:05:11;;;;;;;12.00;10.00;;;;;;;17.93;62.70;100944.16;4921500;29;20141;-82
2021/06/16 07:07:38;;;;;;;13.32;10.75;;;;;;;17.97;62.65;100947.50;4919604;29;20068;-82
2021/06/16 07:10:10;;;;;;;16.13;11.10;;;;;;;17.99;62.30;100938.53;4906024;29;20104;-82
2021/06/16 07:12:36;;;;;;;15.75;10.50;;;;;;;18.29;62.17;100987.66;4885127;29;20080;-81
2021/06/16 07:15:03;;;;;;;13.32;9.90;;;;;;;18.50;61.54;100987.16;4899696;29;20068;-82
2021/06/16 07:17:29;;;;;;;12.93;9.23;;;;;;;18.55;60.31;100972.72;4910789;29;20087;-82
2021/06/16 07:19:56;;;;;;;13.50;9.15;;;;;;;18.62;59.86;100951.97;4898828;29;20053;-81
2021/06/16 07:22:24;;;;;;;14.82;10.57;;;;;;;18.82;59.90;100982.34;4892904;29;20052;-83
2021/06/16 07:24:51;;;;;;;14.82;9.65;;;;;;;18.68;59.76;100948.91;4888434;29;20078;-80
2021/06/16 07:27:19;;;;;;;12.40;9.00;;;;;;;18.80;59.07;100941.94;4889379;29;20048;-82
2021/06/16 07:29:50;;;;;;;13.90;9.00;;;;;;;18.78;58.96;100933.25;4896348;29;20049;-82
2021/06/16 07:32:29;;;;;;;12.57;9.15;;;;;;;19.15;58.76;100988.94;4887141;29;20048;-82
2021/06/16 07:34:59;;;;;;;12.95;8.70;;;;;;;19.31;58.64;100993.13;4889538;29;20055;-79
2021/06/16 07:37:30;;;;;;;11.77;8.23;;;;;;;19.47;58.20;100985.81;4906814;29;20115;-82
2021/06/16 07:39:57;;;;;;;12.32;8.45;;;;;;;19.42;57.79;100950.88;4910763;29;20049;-80
2021/06/16 07:42:31;;;;;;;11.95;8.18;;;;;;;19.61;57.50;100982.16;4908375;29;20059;-79
2021/06/16 07:45:00;;;;;;;11.30;7.68;;;;;;;19.46;57.20;100919.75;4913917;29;20053;-80
2021/06/16 07:47:34;;;;;;;13.20;7.68;;;;;;;19.51;56.55;100922.91;4919630;29;20061;-79
2021/06/16 07:50:04;;;;;;;12.48;6.90;;;;;;;19.72;56.00;100986.69;4922888;29;20065;-81
2021/06/16 07:52:32;;;;;;;14.40;7.45;;;;;;;19.63;56.18;100968.84;4930792;29;20051;-81
2021/06/16 07:55:00;;;;;;;10.10;7.10;;;;;;;19.70;56.47;100969.22;4934242;29;20092;-80
2021/06/16 07:57:27;;;;;;;9.15;7.10;;;;;;;19.54;56.34;100927.97;4895487;29;20048;-78
2021/06/16 07:59:53;;;;;;;9.60;7.28;;;;;;;19.78;56.32;100958.94;4920208;29;20077;-78
2021/06/16 08:02:20;;;;;;;10.60;7.22;;;;;;;19.88;56.45;100977.66;4905119;29;20052;-80
2021/06/16 08:04:49;;;;;;;11.63;8.23;;;;;;;19.77;56.89;100975.78;4901783;29;20053;-80
2021/06/16 08:07:16;;;;;;;12.85;8.13;;;;;;;19.74;56.80;100973.31;4891630;29;20121;-80
2021/06/16 08:09:43;;;;;;;12.80;7.32;;;;;;;19.87;55.87;100958.25;4896977;29;20053;-81
2021/06/16 08:12:13;;;;;;;12.13;6.65;;;;;;;20.07;55.48;100958.63;4894013;29;20048;-83
2021/06/16 08:14:40;;;;;;;9.93;5.43;;;;;;;20.02;55.19;100952.78;4892655;29;20044;-81
2021/06/16 08:17:10;;;;;;;10.75;7.38;;;;;;;20.04;55.37;100942.94;4913961;29;20063;-82
2021/06/16 08:19:37;;;;;;;11.00;7.13;;;;;;;;;;4894071;29;20049;-82
2021/06/16 08:22:04;;;;;;;9.77;6.15;;;;;;;20.13;54.44;100966.13;4894881;29;20068;-82
2021/06/16 08:24:31;;;;;;;8.32;5.40;;;;;;;20.02;52.49;100921.00;4916228;29;20053;-83
2021/06/16 08:26:59;;;;;;;6.00;4.35;;;;;;;20.50;49.75;100951.91;4892225;29;20053;-81
2021/06/16 08:29:25;;;;;;;9.30;5.80;;;;;;;20.54;52.16;100943.56;4891512;29;20064;-83
2021/06/16 08:31:53;;;;;;;11.93;5.50;;;;;;;20.56;51.17;100944.28;4890113;29;20105;-81
2021/06/16 08:34:22;;;;;;;6.13;4.93;;;;;;;20.38;51.12;100914.72;4896026;29;20054;-80
2021/06/16 08:36:50;;;;;;;8.68;4.95;;;;;;;20.73;50.41;100929.78;4909227;29;20056;-80
2021/06/16 08:39:17;;;;;;;9.05;4.82;;;;;;;20.76;51.09;100937.50;4911946;29;20060;-81
2021/06/16 08:41:44;;;;;;;8.55;5.53;;;;;;;20.68;50.37;100939.00;4921508;29;20085;-81
2021/06/16 08:44:12;;;;;;;7.20;5.32;;;;;;;20.69;50.43;100946.00;4923420;29;20036;-78
2021/06/16 08:46:40;;;;;;;10.30;4.93;;;;;;;20.69;49.36;100935.41;4894007;29;20105;-79
2021/06/16 08:49:08;;;;;;;9.90;5.40;;;;;;;20.82;49.38;100930.84;4903856;29;20144;-80
2021/06/16 08:51:37;;;;;;;8.90;4.93;;;;;;;21.05;50.25;100934.34;4887708;29;20060;-80
2021/06/16 08:54:05;;;;;;;9.55;4.75;;;;;;;20.95;49.23;100934.25;4893007;29;20073;-81
2021/06/16 08:56:37;;;;;;;6.50;4.18;;;;;;;21.13;47.77;100933.78;4893425;29;20109;-82
2021/06/16 08:59:04;;;;;;;8.63;5.18;;;;;;;21.44;49.09;100932.13;4887666;29;20087;-82
2021/06/16 09:01:34;;;;;;;6.30;4.32;;;;;;;21.24;47.45;100920.47;4875917;29;20045;-81
2021/06/16 09:04:02;;;;;;;6.18;4.18;;;;;;;21.36;45.81;100909.81;4888501;29;20049;-81
2021/06/16 09:06:31;;;;;;;5.22;4.10;;;;;;;21.39;45.90;100915.75;4890250;29;20113;-80
2021/06/16 09:09:07;;;;;;;8.20;4.10;;;;;;;21.31;46.10;100912.03;4879873;29;20490;-79
2021/06/16 09:12:02;;;;;;;12.70;5.05;;;;;;;21.39;49.18;100906.94;4892133;29;20113;-79
2021/06/16 09:14:33;;;;;;;10.15;5.53;;;;;;;21.16;49.33;100895.50;4890120;29;20056;-80
2021/06/16 09:17:05;;;;;;;6.28;4.40;;;;;;;21.26;47.91;100893.78;4894494;29;20057;-80
2021/06/16 09:19:37;;;;;;;8.32;4.13;;;;;;;21.30;47.40;100892.59;4907719;29;20088;-79
2021/06/16 09:22:07;;;;;;;5.25;3.75;;;;;;;21.60;45.41;100922.97;4905414;29;20052;-79
2021/06/16 09:24:48;;;;;;;8.25;4.80;;;;;;;21.50;45.72;100914.88;4911375;29;20056;-78
2021/06/16 09:27:36;;;;;;;6.47;4.00;;;;;;;21.29;45.86;100885.59;4907666;29;20049;-79
2021/06/16 09:30:25;;;;;;;8.57;4.35;;;;;;;21.69;45.86;100908.94;4904069;29;20049;-79
2021/06/16 09:32:54;;;;;;;9.07;2.95;;;;;;;21.79;44.84;100911.69;4916020;29;20085;-78
2021/06/16 09:35:21;;;;;;;7.07;3.13;;;;;;;21.76;43.19;100906.63;4899663;29;20112;-79
2021/06/16 09:37:54;;;;;;;6.30;2.83;;;;;;;21.89;43.53;100914.44;4890023;29;20113;-78
2021/06/16 09:40:29;;;;;;;7.28;3.80;;;;;;;21.50;43.71;100890.13;4880070;29;20049;-78
2021/06/16 09:43:02;;;;;;;8.20;3.00;;;;;;;21.76;42.01;100903.97;4872157;29;20046;-78
2021/06/16 09:45:33;;;;;;;9.63;4.55;;;;;;;21.89;45.48;100914.44;4852672;29;20107;-78
2021/06/16 09:48:19;;;;;;;8.75;4.00;;;;;;;21.53;45.57;100845.59;4860607;29;20135;-78
2021/06/16 09:50:48;;;;;;;10.55;4.70;;;;;;;21.64;47.45;100887.22;4879265;29;20054;-78
2021/06/16 09:53:14;;;;;;;9.90;4.47;;;;;;;22.05;46.64;100914.81;4852974;29;20069;-80
2021/06/16 09:55:41;;;;;;;6.10;2.60;;;;;;;22.21;41.76;100910.88;4869540;29;20071;-80
2021/06/16 09:58:10;;;;;;;3.42;2.20;;;;;;;22.55;38.16;100903.56;4876849;29;20049;-80
2021/06/16 10:00:48;;;;;;;6.35;2.47;;;;;;;22.57;37.52;100905.25;4869446;29;20065;-81
2021/06/16 10:03:23;;;;;;;3.80;2.22;;;;;;;22.65;38.57;100906.28;4869223;29;20053;-81
2021/06/16 10:06:15;;;;;;;5.53;2.70;;;;;;;22.65;38.83;100894.78;4881932;29;20067;-80
2021/06/16 10:08:50;;;;;;;7.18;2.45;;;;;;;22.47;39.82;100897.22;4874868;29;20050;-81
2021/06/16 10:11:23;;;;;;;6.10;2.38;;;;;;;22.64;38.51;100893.09;4878016;29;20106;-78
2021/06/16 10:13:52;;;;;;;4.60;2.80;;;;;;;22.80;38.77;100887.28;4885953;29;20049;-79
2021/06/16 10:16:19;;;;;;;4.85;2.15;;;;;;;22.95;37.66;100891.28;4871187;29;20072;-79
2021/06/16 10:18:51;;;;;;;4.57;2.03;;;;;;;22.74;35.64;100853.22;4850947;29;20081;-81
2021/06/16 10:21:20;;;;;;;5.88;2.40;;;;;;;22.90;36.39;100888.19;4850053;29;20081;-82
2021/06/16 10:23:49;;;;;;;5.50;2.30;;;;;;;22.86;37.35;100889.41;4871374;29;20045;-82
2021/06/16 10:26:28;;;;;;;7.63;2.65;;;;;;;23.18;37.56;100889.28;4882433;29;20099;-78
2021/06/16 10:29:09;;;;;;;4.53;2.45;;;;;;;23.42;35.92;100864.06;4882166;29;20120;-83
2021/06/16 10:31:41;;;;;;;5.13;2.30;;;;;;;23.15;36.47;100878.84;4868051;29;20053;-80
2021/06/16 10:34:09;;;;;;;5.28;2.13;;;;;;;22.95;36.06;100887.75;4869544;29;20052;-85
2021/06/16 10:37:05;;;;;;;4.13;2.08;;;;;;;22.85;37.10;100877.94;4874611;29;20490;-83
2021/06/16 10:40:25;;;;;;;6.28;2.90;;;;;;;22.89;36.67;100880.31;4868682;29;20065;-79
2021/06/16 10:43:02;;;;;;;4.88;2.33;;;;;;;23.03;38.36;100871.97;4859832;29;20112;-81
2021/06/16 10:45:39;;;;;;;7.15;2.47;;;;;;;23.55;36.94;100865.66;4880520;29;20057;-80
2021/06/16 10:48:11;;;;;;;4.35;2.58;;;;;;;23.59;36.37;100859.06;4853116;29;20487;-79
2021/06/16 10:51:08;;;;;;;5.07;2.22;;;;;;;23.46;35.49;100843.31;4880229;29;20080;-80
2021/06/16 10:53:35;;;;;;;6.03;2.70;;;;;;;23.40;36.35;100843.88;4820821;29;20125;-81
2021/06/16 10:56:07;;;;;;;6.88;2.58;;;;;;;23.46;36.31;100846.84;4869810;29;20053;-82
2021/06/16 10:58:48;;;;;;;3.55;2.30;;;;;;;23.25;36.41;100851.44;4887719;23;20032;-82
2021/06/16 11:01:15;;;;;;;7.35;2.30;;;;;;;23.20;36.53;100843.88;4951144;29;20052;-82
2021/06/16 11:03:58;;;;;;;5.60;2.85;;;;;;;23.45;36.52;100855.81;4962345;28;20120;-82
2021/06/16 11:06:36;;;;;;;4.95;2.67;;;;;;;23.61;36.46;100851.78;4957325;29;20416;-83
2021/06/16 11:09:15;;;;;;;6.72;2.83;;;;;;;23.75;36.62;100854.00;4931230;29;20051;-83
2021/06/16 11:11:54;;;;;;;6.45;3.08;;;;;;;23.37;37.38;100845.00;4934469;29;20050;-82
2021/06/16 11:14:34;;;;;;;4.95;2.75;;;;;;;23.58;36.75;100841.38;4956446;23;20067;-81
2021/06/16 11:17:11;;;;;;;3.97;2.55;;;;;;;23.79;36.25;100833.22;4909865;29;20096;-83
2021/06/16 11:19:37;;;;;;;;;;;;;;;23.97;37.18;100830.72;4908914;29;20387;-81
2021/06/16 11:22:16;;;;;;;5.03;3.17;;;;;;;24.11;37.51;100830.25;4908236;29;20333;-82
2021/06/16 11:25:05;;;;;;;8.70;3.78;;;;;;;24.03;36.91;100775.97;4905982;29;20045;-80
2021/06/16 11:27:57;;;;;;;6.97;3.20;;;;;;;24.44;35.81;100820.06;4905522;29;20049;-81
2021/06/16 11:30:45;;;;;;;8.93;3.30;;;;;;;24.24;35.92;100826.44;4906213;29;20048;-79
2021/06/16 11:33:15;;;;;;;6.50;2.95;;;;;;;23.89;36.58;100835.88;4911489;29;20045;-82
2021/06/16 11:35:52;;;;;;;9.95;2.70;;;;;;;24.43;35.45;100821.03;4896788;29;20053;-82
2021/06/16 11:38:22;;;;;;;4.97;2.55;;;;;;;24.29;36.31;100834.84;4911799;29;20064;-82
2021/06/16 11:41:15;;;;;;;4.82;2.15;;;;;;;24.37;36.15;100816.28;4910901;29;20109;-81
2021/06/16 11:43:57;;;;;;;5.10;2.40;;;;;;;24.23;34.70;100748.25;4910795;29;20061;-80